sensor_id;sensor_type;location;lat;lon;timestamp;P1;durP1;ratioP1;P2;durP2;ratioP2
38557;SDS011;24333;42.626;23.308;2023-07-16T08:02:35;9.73;;;4.50;;
38557;SDS011;24333;42.626;23.308;2023-07-16T08:12:45;14.25;;;5.03;;
38557;SDS011;24333;42.626;23.308;2023-07-16T08:15:11;8.75;;;4.43;;
38557;SDS011;24333;42.626;23.308;2023-07-16T08:17:43;8.20;;;4.35;;
38557;SDS011;24333;42.626;23.308;2023-07-16T08:20:10;6.57;;;4.20;;
38557;SDS011;24333;42.626;23.308;2023-07-16T08:22:37;9.88;;;5.00;;
38557;SDS011;24333;42.626;23.308;2023-07-16T08:25:08;11.68;;;4.68;;
38557;SDS011;24333;42.626;23.308;2023-07-16T08:27:34;9.75;;;4.97;;
38557;SDS011;24333;42.626;23.308;2023-07-16T08:29:59;9.75;;;4.57;;
38557;SDS011;24333;42.626;23.308;2023-07-16T08:32:25;9.10;;;4.30;;
38557;SDS011;24333;42.626;23.308;2023-07-16T08:34:50;9.10;;;4.78;;
38557;SDS011;24333;42.626;23.308;2023-07-16T08:37:16;8.70;;;4.82;;
38557;SDS011;24333;42.626;23.308;2023-07-16T08:39:42;11.85;;;4.47;;
38557;SDS011;24333;42.626;23.308;2023-07-16T08:42:09;8.93;;;5.00;;
38557;SDS011;24333;42.626;23.308;2023-07-16T08:44:37;9.88;;;4.82;;
38557;SDS011;24333;42.626;23.308;2023-07-16T08:47:05;9.27;;;4.55;;
38557;SDS011;24333;42.626;23.308;2023-07-16T08:49:31;10.98;;;4.85;;
38557;SDS011;24333;42.626;23.308;2023-07-16T08:51:59;8.48;;;4.68;;
38557;SDS011;24333;42.626;23.308;2023-07-16T08:54:33;13.75;;;5.28;;
38557;SDS011;24333;42.626;23.308;2023-07-16T09:41:47;11.07;;;4.90;;
38557;SDS011;24333;42.626;23.308;2023-07-16T09:44:14;6.82;;;4.47;;
38557;SDS011;24333;42.626;23.308;2023-07-16T09:46:40;8.32;;;4.25;;
38557;SDS011;24333;42.626;23.308;2023-07-16T09:49:06;7.30;;;4.22;;
38557;SDS011;24333;42.626;23.308;2023-07-16T09:51:33;7.43;;;4.57;;
38557;SDS011;24333;42.626;23.308;2023-07-16T09:54:01;14.32;;;4.72;;
38557;SDS011;24333;42.626;23.308;2023-07-16T09:56:28;12.55;;;4.90;;
38557;SDS011;24333;42.626;23.308;2023-07-16T09:58:58;7.35;;;4.22;;
38557;SDS011;24333;42.626;23.308;2023-07-16T10:01:26;8.98;;;4.72;;
38557;SDS011;24333;42.626;23.308;2023-07-16T10:03:52;10.70;;;4.65;;
38557;SDS011;24333;42.626;23.308;2023-07-16T10:06:17;10.90;;;4.78;;
38557;SDS011;24333;42.626;23.308;2023-07-16T10:37:05;5.75;;;4.55;;
38557;SDS011;24333;42.626;23.308;2023-07-16T10:39:31;7.63;;;4.57;;
38557;SDS011;24333;42.626;23.308;2023-07-16T10:41:56;7.32;;;4.30;;
38557;SDS011;24333;42.626;23.308;2023-07-16T10:44:22;9.10;;;3.92;;
38557;SDS011;24333;42.626;23.308;2023-07-16T10:46:48;10.23;;;4.68;;
38557;SDS011;24333;42.626;23.308;2023-07-16T10:49:13;12.68;;;4.57;;
38557;SDS011;24333;42.626;23.308;2023-07-16T10:51:38;10.10;;;4.60;;
38557;SDS011;24333;42.626;23.308;2023-07-16T10:54:04;8.35;;;4.38;;
38557;SDS011;24333;42.626;23.308;2023-07-16T11:25:01;8.25;;;4.65;;
38557;SDS011;24333;42.626;23.308;2023-07-16T11:27:28;8.70;;;4.35;;
38557;SDS011;24333;42.626;23.308;2023-07-16T11:29:58;6.25;;;4.65;;
38557;SDS011;24333;42.626;23.308;2023-07-16T11:34:56;9.10;;;4.70;;
38557;SDS011;24333;42.626;23.308;2023-07-16T11:37:27;8.43;;;4.25;;
38557;SDS011;24333;42.626;23.308;2023-07-16T11:40:01;7.13;;;4.47;;
38557;SDS011;24333;42.626;23.308;2023-07-16T11:45:05;6.10;;;4.53;;
38557;SDS011;24333;42.626;23.308;2023-07-16T11:47:39;6.97;;;4.03;;
38557;SDS011;24333;42.626;23.308;2023-07-16T11:50:05;9.27;;;4.93;;
38557;SDS011;24333;42.626;23.308;2023-07-16T11:52:31;19.80;;;12.48;;
38557;SDS011;24333;42.626;23.308;2023-07-16T11:54:57;8.05;;;4.57;;
38557;SDS011;24333;42.626;23.308;2023-07-16T11:57:26;9.45;;;4.45;;
38557;SDS011;24333;42.626;23.308;2023-07-16T11:59:51;8.27;;;4.50;;
38557;SDS011;24333;42.626;23.308;2023-07-16T12:02:19;8.35;;;4.53;;
38557;SDS011;24333;42.626;23.308;2023-07-16T12:04:45;9.65;;;4.57;;
38557;SDS011;24333;42.626;23.308;2023-07-16T12:07:10;8.27;;;5.00;;
38557;SDS011;24333;42.626;23.308;2023-07-16T12:09:35;10.68;;;4.80;;
38557;SDS011;24333;42.626;23.308;2023-07-16T12:12:01;6.45;;;4.50;;
38557;SDS011;24333;42.626;23.308;2023-07-16T12:14:27;9.07;;;4.20;;
38557;SDS011;24333;42.626;23.308;2023-07-16T12:16:52;8.32;;;4.72;;
38557;SDS011;24333;42.626;23.308;2023-07-16T12:19:18;10.90;;;5.20;;
38557;SDS011;24333;42.626;23.308;2023-07-16T12:21:43;8.00;;;5.13;;
38557;SDS011;24333;42.626;23.308;2023-07-16T12:24:09;10.38;;;5.07;;
38557;SDS011;24333;42.626;23.308;2023-07-16T12:26:35;8.43;;;4.50;;
38557;SDS011;24333;42.626;23.308;2023-07-16T12:29:00;9.32;;;4.47;;
38557;SDS011;24333;42.626;23.308;2023-07-16T12:31:29;7.38;;;4.13;;
38557;SDS011;24333;42.626;23.308;2023-07-16T12:33:58;7.07;;;4.60;;
38557;SDS011;24333;42.626;23.308;2023-07-16T12:36:25;11.75;;;4.63;;
38557;SDS011;24333;42.626;23.308;2023-07-16T12:38:50;7.05;;;3.92;;
38557;SDS011;24333;42.626;23.308;2023-07-16T12:41:16;5.82;;;3.72;;
38557;SDS011;24333;42.626;23.308;2023-07-16T12:43:41;8.88;;;5.30;;
38557;SDS011;24333;42.626;23.308;2023-07-16T12:46:07;6.47;;;4.55;;
38557;SDS011;24333;42.626;23.308;2023-07-16T12:48:32;7.95;;;3.97;;
38557;SDS011;24333;42.626;23.308;2023-07-16T12:50:58;13.25;;;5.57;;
38557;SDS011;24333;42.626;23.308;2023-07-16T12:53:24;7.25;;;4.20;;
38557;SDS011;24333;42.626;23.308;2023-07-16T12:55:50;10.02;;;5.20;;
38557;SDS011;24333;42.626;23.308;2023-07-16T12:58:17;11.10;;;4.70;;
38557;SDS011;24333;42.626;23.308;2023-07-16T13:00:42;8.77;;;4.85;;
38557;SDS011;24333;42.626;23.308;2023-07-16T13:03:09;9.05;;;4.60;;
38557;SDS011;24333;42.626;23.308;2023-07-16T13:05:41;7.65;;;4.20;;
38557;SDS011;24333;42.626;23.308;2023-07-16T13:08:07;7.82;;;4.25;;
38557;SDS011;24333;42.626;23.308;2023-07-16T13:10:32;9.13;;;4.22;;
38557;SDS011;24333;42.626;23.308;2023-07-16T13:12:58;7.47;;;3.95;;
38557;SDS011;24333;42.626;23.308;2023-07-16T13:15:23;8.00;;;4.10;;
38557;SDS011;24333;42.626;23.308;2023-07-16T13:17:49;10.57;;;4.97;;
38557;SDS011;24333;42.626;23.308;2023-07-16T13:20:14;6.00;;;3.78;;
38557;SDS011;24333;42.626;23.308;2023-07-16T13:22:40;9.27;;;4.00;;
38557;SDS011;24333;42.626;23.308;2023-07-16T13:25:05;6.75;;;3.97;;
38557;SDS011;24333;42.626;23.308;2023-07-16T13:27:31;6.90;;;3.78;;
38557;SDS011;24333;42.626;23.308;2023-07-16T13:29:57;8.02;;;3.63;;
38557;SDS011;24333;42.626;23.308;2023-07-16T13:32:22;9.85;;;4.25;;
38557;SDS011;24333;42.626;23.308;2023-07-16T13:34:48;7.78;;;4.38;;
38557;SDS011;24333;42.626;23.308;2023-07-16T13:37:14;11.40;;;4.38;;
38557;SDS011;24333;42.626;23.308;2023-07-16T13:39:40;7.07;;;3.85;;
38557;SDS011;24333;42.626;23.308;2023-07-16T13:42:05;7.05;;;4.00;;
38557;SDS011;24333;42.626;23.308;2023-07-16T13:44:31;7.60;;;4.32;;
38557;SDS011;24333;42.626;23.308;2023-07-16T13:46:59;9.93;;;4.68;;
38557;SDS011;24333;42.626;23.308;2023-07-16T13:49:25;11.40;;;4.10;;
38557;SDS011;24333;42.626;23.308;2023-07-16T13:51:50;11.40;;;4.30;;
38557;SDS011;24333;42.626;23.308;2023-07-16T13:54:16;6.80;;;4.80;;
38557;SDS011;24333;42.626;23.308;2023-07-16T13:56:41;8.85;;;4.60;;
38557;SDS011;24333;42.626;23.308;2023-07-16T13:59:06;11.77;;;4.45;;
38557;SDS011;24333;42.626;23.308;2023-07-16T14:01:32;6.80;;;4.38;;
38557;SDS011;24333;42.626;23.308;2023-07-16T14:04:05;7.90;;;4.45;;
38557;SDS011;24333;42.626;23.308;2023-07-16T14:06:31;8.52;;;4.50;;
38557;SDS011;24333;42.626;23.308;2023-07-16T14:08:56;8.70;;;4.22;;
38557;SDS011;24333;42.626;23.308;2023-07-16T14:11:22;6.05;;;4.13;;
38557;SDS011;24333;42.626;23.308;2023-07-16T14:13:47;9.48;;;4.82;;
38557;SDS011;24333;42.626;23.308;2023-07-16T14:16:16;7.90;;;4.78;;
38557;SDS011;24333;42.626;23.308;2023-07-16T14:18:44;10.57;;;5.05;;
38557;SDS011;24333;42.626;23.308;2023-07-16T14:21:10;10.10;;;4.22;;
38557;SDS011;24333;42.626;23.308;2023-07-16T14:23:36;6.30;;;4.15;;
38557;SDS011;24333;42.626;23.308;2023-07-16T14:26:01;9.07;;;4.97;;
38557;SDS011;24333;42.626;23.308;2023-07-16T14:28:28;6.60;;;4.05;;
38557;SDS011;24333;42.626;23.308;2023-07-16T14:30:53;8.05;;;4.57;;
38557;SDS011;24333;42.626;23.308;2023-07-16T14:33:19;11.13;;;4.57;;
38557;SDS011;24333;42.626;23.308;2023-07-16T14:35:44;8.02;;;4.50;;
38557;SDS011;24333;42.626;23.308;2023-07-16T14:38:10;9.57;;;4.78;;
38557;SDS011;24333;42.626;23.308;2023-07-16T14:40:35;8.00;;;4.38;;
38557;SDS011;24333;42.626;23.308;2023-07-16T14:43:03;6.35;;;4.10;;
38557;SDS011;24333;42.626;23.308;2023-07-16T14:45:29;8.05;;;4.20;;
38557;SDS011;24333;42.626;23.308;2023-07-16T14:47:54;8.70;;;4.80;;
38557;SDS011;24333;42.626;23.308;2023-07-16T14:50:20;8.20;;;4.75;;
38557;SDS011;24333;42.626;23.308;2023-07-16T14:52:45;9.52;;;4.47;;
38557;SDS011;24333;42.626;23.308;2023-07-16T14:55:10;8.00;;;4.82;;
38557;SDS011;24333;42.626;23.308;2023-07-16T14:57:36;8.80;;;4.40;;
38557;SDS011;24333;42.626;23.308;2023-07-16T15:00:01;8.05;;;4.53;;
38557;SDS011;24333;42.626;23.308;2023-07-16T15:02:29;7.35;;;4.78;;
38557;SDS011;24333;42.626;23.308;2023-07-16T15:04:54;7.10;;;3.85;;
38557;SDS011;24333;42.626;23.308;2023-07-16T15:07:20;11.20;;;4.07;;
38557;SDS011;24333;42.626;23.308;2023-07-16T15:09:45;15.32;;;4.28;;
38557;SDS011;24333;42.626;23.308;2023-07-16T15:12:11;6.38;;;4.03;;
38557;SDS011;24333;42.626;23.308;2023-07-16T15:14:36;5.50;;;4.20;;
38557;SDS011;24333;42.626;23.308;2023-07-16T15:17:01;8.40;;;4.03;;
38557;SDS011;24333;42.626;23.308;2023-07-16T15:19:29;11.00;;;4.85;;
38557;SDS011;24333;42.626;23.308;2023-07-16T15:21:54;10.85;;;4.55;;
38557;SDS011;24333;42.626;23.308;2023-07-16T15:24:19;8.05;;;4.63;;
38557;SDS011;24333;42.626;23.308;2023-07-16T15:26:45;9.45;;;4.25;;
38557;SDS011;24333;42.626;23.308;2023-07-16T15:29:10;7.82;;;4.32;;
38557;SDS011;24333;42.626;23.308;2023-07-16T15:31:35;8.43;;;4.25;;
38557;SDS011;24333;42.626;23.308;2023-07-16T15:34:01;12.23;;;5.38;;
38557;SDS011;24333;42.626;23.308;2023-07-16T15:36:26;9.40;;;4.20;;
38557;SDS011;24333;42.626;23.308;2023-07-16T15:38:52;8.93;;;4.47;;
38557;SDS011;24333;42.626;23.308;2023-07-16T15:41:18;10.40;;;4.55;;
38557;SDS011;24333;42.626;23.308;2023-07-16T15:43:45;8.15;;;4.43;;
38557;SDS011;24333;42.626;23.308;2023-07-16T15:46:14;9.85;;;4.50;;
38557;SDS011;24333;42.626;23.308;2023-07-16T15:48:40;7.97;;;4.60;;
38557;SDS011;24333;42.626;23.308;2023-07-16T15:51:07;6.75;;;4.47;;
38557;SDS011;24333;42.626;23.308;2023-07-16T15:53:33;7.55;;;5.10;;
38557;SDS011;24333;42.626;23.308;2023-07-16T15:55:58;10.25;;;4.88;;
38557;SDS011;24333;42.626;23.308;2023-07-16T15:58:23;8.43;;;4.75;;
38557;SDS011;24333;42.626;23.308;2023-07-16T16:00:49;8.18;;;5.00;;
38557;SDS011;24333;42.626;23.308;2023-07-16T16:03:15;7.95;;;4.60;;
38557;SDS011;24333;42.626;23.308;2023-07-16T16:05:41;10.60;;;5.47;;
38557;SDS011;24333;42.626;23.308;2023-07-16T16:08:19;8.02;;;4.65;;
38557;SDS011;24333;42.626;23.308;2023-07-16T16:10:46;8.80;;;4.72;;
38557;SDS011;24333;42.626;23.308;2023-07-16T16:13:14;12.38;;;4.68;;
38557;SDS011;24333;42.626;23.308;2023-07-16T16:15:40;7.10;;;4.60;;
38557;SDS011;24333;42.626;23.308;2023-07-16T16:18:06;9.57;;;4.90;;
38557;SDS011;24333;42.626;23.308;2023-07-16T16:20:31;10.27;;;5.57;;
38557;SDS011;24333;42.626;23.308;2023-07-16T16:22:57;8.13;;;5.13;;
38557;SDS011;24333;42.626;23.308;2023-07-16T16:25:24;9.88;;;5.53;;
38557;SDS011;24333;42.626;23.308;2023-07-16T16:27:49;10.73;;;5.95;;
38557;SDS011;24333;42.626;23.308;2023-07-16T16:30:14;12.57;;;6.18;;
38557;SDS011;24333;42.626;23.308;2023-07-16T16:32:41;13.10;;;6.25;;
38557;SDS011;24333;42.626;23.308;2023-07-16T16:35:06;9.98;;;5.82;;
38557;SDS011;24333;42.626;23.308;2023-07-16T16:37:32;9.02;;;5.90;;
38557;SDS011;24333;42.626;23.308;2023-07-16T16:39:58;13.43;;;6.10;;
38557;SDS011;24333;42.626;23.308;2023-07-16T16:42:25;11.35;;;6.38;;
38557;SDS011;24333;42.626;23.308;2023-07-16T16:44:50;12.93;;;6.00;;
38557;SDS011;24333;42.626;23.308;2023-07-16T16:47:16;14.18;;;6.70;;
38557;SDS011;24333;42.626;23.308;2023-07-16T16:49:41;8.90;;;5.70;;
38557;SDS011;24333;42.626;23.308;2023-07-16T16:52:07;10.82;;;5.80;;
38557;SDS011;24333;42.626;23.308;2023-07-16T16:54:32;12.90;;;6.68;;
38557;SDS011;24333;42.626;23.308;2023-07-16T16:56:58;9.80;;;6.63;;
38557;SDS011;24333;42.626;23.308;2023-07-16T16:59:23;11.98;;;6.22;;
38557;SDS011;24333;42.626;23.308;2023-07-16T17:01:49;9.45;;;6.28;;
38557;SDS011;24333;42.626;23.308;2023-07-16T17:04:14;11.77;;;6.25;;
38557;SDS011;24333;42.626;23.308;2023-07-16T17:06:40;12.45;;;6.40;;
38557;SDS011;24333;42.626;23.308;2023-07-16T17:09:06;11.75;;;6.38;;
38557;SDS011;24333;42.626;23.308;2023-07-16T17:11:31;10.88;;;6.00;;
38557;SDS011;24333;42.626;23.308;2023-07-16T17:13:57;10.73;;;6.20;;
38557;SDS011;24333;42.626;23.308;2023-07-16T17:16:22;14.52;;;6.78;;
38557;SDS011;24333;42.626;23.308;2023-07-16T17:18:48;13.18;;;7.47;;
38557;SDS011;24333;42.626;23.308;2023-07-16T17:21:13;13.80;;;7.40;;
38557;SDS011;24333;42.626;23.308;2023-07-16T17:23:39;13.85;;;7.18;;
38557;SDS011;24333;42.626;23.308;2023-07-16T17:26:04;10.13;;;6.57;;
38557;SDS011;24333;42.626;23.308;2023-07-16T17:28:29;14.00;;;6.25;;
38557;SDS011;24333;42.626;23.308;2023-07-16T17:30:55;10.25;;;6.53;;
38557;SDS011;24333;42.626;23.308;2023-07-16T17:33:25;14.95;;;6.45;;
38557;SDS011;24333;42.626;23.308;2023-07-16T17:35:51;12.75;;;6.47;;
38557;SDS011;24333;42.626;23.308;2023-07-16T17:38:16;11.93;;;6.25;;
38557;SDS011;24333;42.626;23.308;2023-07-16T17:40:42;11.05;;;6.75;;
38557;SDS011;24333;42.626;23.308;2023-07-16T17:43:07;13.20;;;6.75;;
38557;SDS011;24333;42.626;23.308;2023-07-16T17:45:33;11.60;;;6.30;;
38557;SDS011;24333;42.626;23.308;2023-07-16T17:47:58;14.45;;;6.15;;
38557;SDS011;24333;42.626;23.308;2023-07-16T17:50:23;10.07;;;6.20;;
38557;SDS011;24333;42.626;23.308;2023-07-16T17:52:49;14.00;;;6.32;;
38557;SDS011;24333;42.626;23.308;2023-07-16T17:55:14;11.10;;;6.40;;
38557;SDS011;24333;42.626;23.308;2023-07-16T17:57:40;13.30;;;6.45;;
38557;SDS011;24333;42.626;23.308;2023-07-16T18:00:06;14.25;;;6.18;;
38557;SDS011;24333;42.626;23.308;2023-07-16T18:02:32;10.02;;;6.10;;
38557;SDS011;24333;42.626;23.308;2023-07-16T18:04:58;13.68;;;7.18;;
38557;SDS011;24333;42.626;23.308;2023-07-16T18:07:23;13.35;;;6.30;;
38557;SDS011;24333;42.626;23.308;2023-07-16T18:09:49;11.25;;;6.75;;
38557;SDS011;24333;42.626;23.308;2023-07-16T18:12:15;14.75;;;6.32;;
38557;SDS011;24333;42.626;23.308;2023-07-16T18:14:41;11.35;;;6.60;;
38557;SDS011;24333;42.626;23.308;2023-07-16T18:17:07;14.00;;;6.95;;
38557;SDS011;24333;42.626;23.308;2023-07-16T18:19:32;15.20;;;6.43;;
38557;SDS011;24333;42.626;23.308;2023-07-16T18:21:58;10.70;;;6.22;;
38557;SDS011;24333;42.626;23.308;2023-07-16T18:24:24;9.07;;;6.13;;
38557;SDS011;24333;42.626;23.308;2023-07-16T18:26:49;10.75;;;6.28;;
38557;SDS011;24333;42.626;23.308;2023-07-16T18:29:15;13.13;;;6.88;;
38557;SDS011;24333;42.626;23.308;2023-07-16T18:31:40;14.30;;;6.95;;
38557;SDS011;24333;42.626;23.308;2023-07-16T18:34:06;10.82;;;6.40;;
38557;SDS011;24333;42.626;23.308;2023-07-16T18:36:31;14.70;;;7.55;;
38557;SDS011;24333;42.626;23.308;2023-07-16T18:38:57;13.35;;;6.88;;
38557;SDS011;24333;42.626;23.308;2023-07-16T18:41:22;14.65;;;6.57;;
38557;SDS011;24333;42.626;23.308;2023-07-16T18:43:48;17.35;;;7.35;;
38557;SDS011;24333;42.626;23.308;2023-07-16T18:46:13;12.68;;;6.38;;
38557;SDS011;24333;42.626;23.308;2023-07-16T18:48:38;9.85;;;6.00;;
38557;SDS011;24333;42.626;23.308;2023-07-16T18:51:04;12.88;;;6.93;;
38557;SDS011;24333;42.626;23.308;2023-07-16T18:53:30;15.65;;;5.80;;
38557;SDS011;24333;42.626;23.308;2023-07-16T18:55:58;8.27;;;5.35;;
38557;SDS011;24333;42.626;23.308;2023-07-16T18:58:23;11.68;;;6.05;;
38557;SDS011;24333;42.626;23.308;2023-07-16T19:00:50;9.68;;;5.60;;
38557;SDS011;24333;42.626;23.308;2023-07-16T19:03:16;12.48;;;6.07;;
38557;SDS011;24333;42.626;23.308;2023-07-16T19:05:42;9.93;;;5.70;;
38557;SDS011;24333;42.626;23.308;2023-07-16T19:08:08;9.77;;;6.13;;
38557;SDS011;24333;42.626;23.308;2023-07-16T19:10:34;12.13;;;6.22;;
38557;SDS011;24333;42.626;23.308;2023-07-16T19:13:02;11.48;;;5.82;;
38557;SDS011;24333;42.626;23.308;2023-07-16T19:15:27;11.00;;;5.63;;
38557;SDS011;24333;42.626;23.308;2023-07-16T19:17:52;12.75;;;5.80;;
38557;SDS011;24333;42.626;23.308;2023-07-16T19:20:18;11.13;;;6.07;;
38557;SDS011;24333;42.626;23.308;2023-07-16T19:22:43;14.40;;;5.90;;
38557;SDS011;24333;42.626;23.308;2023-07-16T19:25:09;15.55;;;6.82;;
38557;SDS011;24333;42.626;23.308;2023-07-16T19:27:34;10.45;;;6.05;;
38557;SDS011;24333;42.626;23.308;2023-07-16T19:30:00;11.05;;;5.95;;
38557;SDS011;24333;42.626;23.308;2023-07-16T19:32:28;11.20;;;6.20;;
38557;SDS011;24333;42.626;23.308;2023-07-16T19:34:53;11.40;;;5.93;;
38557;SDS011;24333;42.626;23.308;2023-07-16T19:37:19;10.57;;;6.40;;
38557;SDS011;24333;42.626;23.308;2023-07-16T19:39:45;10.20;;;6.03;;
38557;SDS011;24333;42.626;23.308;2023-07-16T19:42:11;13.07;;;5.38;;
38557;SDS011;24333;42.626;23.308;2023-07-16T19:44:37;11.27;;;5.82;;
38557;SDS011;24333;42.626;23.308;2023-07-16T19:47:03;10.15;;;6.20;;
38557;SDS011;24333;42.626;23.308;2023-07-16T19:49:29;11.05;;;5.78;;
38557;SDS011;24333;42.626;23.308;2023-07-16T19:51:55;10.07;;;6.07;;
38557;SDS011;24333;42.626;23.308;2023-07-16T19:54:20;10.25;;;5.85;;
38557;SDS011;24333;42.626;23.308;2023-07-16T19:56:46;9.15;;;5.68;;
38557;SDS011;24333;42.626;23.308;2023-07-16T19:59:11;12.07;;;5.40;;
38557;SDS011;24333;42.626;23.308;2023-07-16T20:01:36;9.05;;;5.85;;
38557;SDS011;24333;42.626;23.308;2023-07-16T20:04:02;11.63;;;5.68;;
38557;SDS011;24333;42.626;23.308;2023-07-16T20:06:27;10.85;;;6.28;;
38557;SDS011;24333;42.626;23.308;2023-07-16T20:08:53;11.32;;;5.82;;
38557;SDS011;24333;42.626;23.308;2023-07-16T20:11:18;7.32;;;5.30;;
38557;SDS011;24333;42.626;23.308;2023-07-16T20:13:44;9.98;;;5.50;;
38557;SDS011;24333;42.626;23.308;2023-07-16T20:16:09;9.50;;;5.85;;
38557;SDS011;24333;42.626;23.308;2023-07-16T20:18:35;9.60;;;5.90;;
38557;SDS011;24333;42.626;23.308;2023-07-16T20:21:00;11.40;;;5.28;;
38557;SDS011;24333;42.626;23.308;2023-07-16T20:23:25;8.77;;;5.20;;
38557;SDS011;24333;42.626;23.308;2023-07-16T20:25:51;9.13;;;5.60;;
38557;SDS011;24333;42.626;23.308;2023-07-16T20:28:18;9.57;;;5.43;;
38557;SDS011;24333;42.626;23.308;2023-07-16T20:30:44;8.95;;;5.22;;
38557;SDS011;24333;42.626;23.308;2023-07-16T20:33:11;10.10;;;5.65;;
38557;SDS011;24333;42.626;23.308;2023-07-16T20:35:37;10.80;;;5.93;;
38557;SDS011;24333;42.626;23.308;2023-07-16T20:38:02;9.00;;;5.53;;
38557;SDS011;24333;42.626;23.308;2023-07-16T20:40:30;10.18;;;5.68;;
38557;SDS011;24333;42.626;23.308;2023-07-16T20:42:56;10.50;;;6.20;;
38557;SDS011;24333;42.626;23.308;2023-07-16T20:45:25;9.15;;;5.75;;
38557;SDS011;24333;42.626;23.308;2023-07-16T20:47:55;9.57;;;6.15;;
38557;SDS011;24333;42.626;23.308;2023-07-16T20:50:22;13.40;;;5.47;;
38557;SDS011;24333;42.626;23.308;2023-07-16T20:52:56;8.82;;;5.47;;
38557;SDS011;24333;42.626;23.308;2023-07-16T20:55:25;16.15;;;5.97;;
38557;SDS011;24333;42.626;23.308;2023-07-16T20:57:53;13.95;;;5.97;;
38557;SDS011;24333;42.626;23.308;2023-07-16T21:00:19;7.90;;;5.45;;
38557;SDS011;24333;42.626;23.308;2023-07-16T21:02:50;12.32;;;5.70;;
38557;SDS011;24333;42.626;23.308;2023-07-16T21:05:17;11.68;;;5.88;;
38557;SDS011;24333;42.626;23.308;2023-07-16T21:07:43;12.80;;;6.65;;
38557;SDS011;24333;42.626;23.308;2023-07-16T21:10:10;12.90;;;5.90;;
38557;SDS011;24333;42.626;23.308;2023-07-16T21:12:37;9.25;;;5.45;;
38557;SDS011;24333;42.626;23.308;2023-07-16T21:15:04;9.82;;;5.78;;
38557;SDS011;24333;42.626;23.308;2023-07-16T21:17:31;11.77;;;6.10;;
38557;SDS011;24333;42.626;23.308;2023-07-16T21:19:57;12.98;;;6.47;;
38557;SDS011;24333;42.626;23.308;2023-07-16T21:22:26;12.65;;;6.43;;
38557;SDS011;24333;42.626;23.308;2023-07-16T21:24:53;13.48;;;7.55;;
38557;SDS011;24333;42.626;23.308;2023-07-16T21:27:22;8.73;;;6.15;;
38557;SDS011;24333;42.626;23.308;2023-07-16T21:29:50;14.45;;;6.93;;
38557;SDS011;24333;42.626;23.308;2023-07-16T21:32:15;11.75;;;5.80;;
38557;SDS011;24333;42.626;23.308;2023-07-16T21:34:41;14.65;;;6.97;;
38557;SDS011;24333;42.626;23.308;2023-07-16T21:37:06;13.52;;;6.10;;
38557;SDS011;24333;42.626;23.308;2023-07-16T21:39:32;14.05;;;6.85;;
38557;SDS011;24333;42.626;23.308;2023-07-16T21:41:57;13.65;;;6.57;;
38557;SDS011;24333;42.626;23.308;2023-07-16T21:44:23;12.90;;;7.05;;
38557;SDS011;24333;42.626;23.308;2023-07-16T21:46:48;11.52;;;6.00;;
38557;SDS011;24333;42.626;23.308;2023-07-16T21:49:14;16.08;;;6.90;;
38557;SDS011;24333;42.626;23.308;2023-07-16T21:51:39;14.13;;;6.47;;
38557;SDS011;24333;42.626;23.308;2023-07-16T21:54:04;11.38;;;6.60;;
38557;SDS011;24333;42.626;23.308;2023-07-16T21:56:30;14.15;;;6.72;;
38557;SDS011;24333;42.626;23.308;2023-07-16T21:58:55;9.68;;;6.18;;
38557;SDS011;24333;42.626;23.308;2023-07-16T22:01:21;10.10;;;5.82;;
38557;SDS011;24333;42.626;23.308;2023-07-16T23:09:16;15.38;;;7.20;;
38557;SDS011;24333;42.626;23.308;2023-07-16T23:27:16;13.32;;;7.10;;
38557;SDS011;24333;42.626;23.308;2023-07-16T23:43:16;13.07;;;7.57;;
38557;SDS011;24333;42.626;23.308;2023-07-16T23:45:42;15.88;;;7.65;;
38557;SDS011;24333;42.626;23.308;2023-07-16T23:48:07;14.90;;;8.10;;
38557;SDS011;24333;42.626;23.308;2023-07-16T23:50:33;15.00;;;7.53;;
38557;SDS011;24333;42.626;23.308;2023-07-16T23:52:59;12.00;;;7.35;;
